Time;durP1;ratioP1;P1;durP2;ratioP2;P2;SDS_P1;SDS_P2;PMS_P1;PMS_P2;Temp;Humidity;BMP_temperature;BMP_pressure;BME280_temperature;BME280_humidity;BME280_pressure;Samples;Min_cycle;Max_cycle;Signal;HPM_P1;HPM_P2
2022/10/06 00:00:54;;;;;;;10.07;3.78;;;;;;;8.87;71.43;95140.06;5147038;27;20015;-75
2022/10/06 00:03:24;;;;;;;6.10;2.95;;;;;;;8.84;71.54;95149.41;5146778;27;20041;-76
2022/10/06 00:05:50;;;;;;;7.57;3.35;;;;;;;8.86;71.45;95147.25;5147002;27;20190;-76
2022/10/06 00:08:17;;;;;;;6.97;3.83;;;;;;;8.85;71.09;95143.00;5128013;27;20015;-75
2022/10/06 00:10:42;;;;;;;6.95;3.15;;;;;;;8.79;71.44;95144.09;5146218;27;20040;-75
2022/10/06 00:13:08;;;;;;;4.68;2.88;;;;;;;8.77;71.32;95143.56;5146460;27;20039;-78
2022/10/06 00:15:33;;;;;;;6.05;2.80;;;;;;;8.76;71.35;95141.97;5146371;27;20019;-74
2022/10/06 00:17:59;;;;;;;4.68;2.80;;;;;;;8.74;71.47;95146.75;5146304;27;20019;-76
2022/10/06 00:20:28;;;;;;;8.30;2.50;;;;;;;8.69;71.58;95144.94;5146420;27;20101;-76
2022/10/06 00:22:55;;;;;;;11.13;3.83;;;;;;;8.68;71.87;95138.00;5128259;27;20019;-74
2022/10/06 00:25:22;;;;;;;7.30;4.10;;;;;;;8.64;71.64;95132.41;5145445;27;20025;-74
2022/10/06 00:27:50;;;;;;;9.45;4.43;;;;;;;8.68;71.95;95140.66;5146385;27;20015;-74
2022/10/06 00:30:21;;;;;;;13.50;4.15;;;;;;;8.70;72.16;95141.19;5145926;27;20053;-74
2022/10/06 00:32:59;;;;;;;10.10;3.83;;;;;;;8.70;71.83;95130.56;5146423;27;20027;-74
2022/10/06 00:35:27;;;;;;;10.98;3.28;;;;;;;8.68;71.89;95126.59;5127903;27;20019;-74
2022/10/06 00:37:53;;;;;;;8.73;3.40;;;;;;;8.67;71.73;95123.13;5146558;27;20023;-74
2022/10/06 00:40:19;;;;;;;7.88;3.55;;;;;;;8.60;71.70;95131.38;5146123;27;20042;-74
2022/10/06 00:42:57;;;;;;;5.80;2.72;;;;;;;8.58;71.78;95119.41;5145908;27;20019;-74
2022/10/06 00:45:28;;;;;;;6.18;3.35;;;;;;;8.55;71.95;95118.09;5146278;27;20251;-74
2022/10/06 00:47:56;;;;;;;5.30;2.90;;;;;;;8.54;71.98;95119.16;5146163;27;20072;-74
2022/10/06 00:50:22;;;;;;;4.78;2.33;;;;;;;8.52;72.01;95118.63;5145755;27;20030;-74
2022/10/06 00:52:48;;;;;;;4.57;2.60;;;;;;;8.47;72.08;95109.84;5145827;27;20019;-74
2022/10/06 00:55:14;;;;;;;6.43;2.80;;;;;;;8.46;72.10;95113.59;5145503;27;20015;-74
2022/10/06 00:57:40;;;;;;;5.18;3.05;;;;;;;8.45;72.06;95110.16;5145689;27;20106;-75
2022/10/06 01:00:07;;;;;;;5.53;2.67;;;;;;;8.43;72.04;95101.66;5145630;27;20022;-75
2022/10/06 01:02:36;;;;;;;4.55;2.58;;;;;;;8.34;72.29;95101.34;5145659;27;20243;-75
2022/10/06 01:05:04;;;;;;;4.80;2.67;;;;;;;8.33;72.38;95097.13;5145561;27;20015;-75
2022/10/06 01:07:31;;;;;;;5.28;2.45;;;;;;;8.30;72.20;95088.88;5145326;27;20019;-75
2022/10/06 01:09:59;;;;;;;3.35;2.03;;;;;;;8.26;72.69;95093.91;5145079;27;20325;-75
2022/10/06 01:12:28;;;;;;;5.03;2.00;;;;;;;8.27;72.66;95089.44;5145474;27;20025;-75
2022/10/06 01:14:55;;;;;;;3.45;2.10;;;;;;;8.26;72.75;95093.13;5145362;27;20019;-75
2022/10/06 01:17:28;;;;;;;4.90;2.13;;;;;;;8.26;72.71;95082.50;5145173;27;20369;-74
2022/10/06 01:19:58;;;;;;;3.50;2.10;;;;;;;8.20;72.75;95074.56;5145306;27;20050;-75
2022/10/06 01:22:29;;;;;;;6.05;2.00;;;;;;;8.15;72.62;95077.22;5145263;27;20049;-74
2022/10/06 01:24:56;;;;;;;3.00;1.93;;;;;;;8.17;72.64;95074.28;5145150;27;20022;-74
2022/10/06 01:27:24;;;;;;;8.05;2.00;;;;;;;8.17;72.44;95069.78;5144779;27;20260;-74
2022/10/06 01:29:54;;;;;;;5.07;1.75;;;;;;;8.14;72.51;95065.00;5144666;27;20324;-74
2022/10/06 01:32:22;;;;;;;3.65;1.58;;;;;;;8.13;72.69;95073.25;5144842;27;20042;-74
2022/10/06 01:34:47;;;;;;;4.18;1.80;;;;;;;8.13;72.70;95074.03;5144553;27;20104;-74
2022/10/06 01:37:13;;;;;;;6.22;1.98;;;;;;;8.13;72.65;95067.94;5143734;27;20039;-74
2022/10/06 01:39:39;;;;;;;4.07;1.50;;;;;;;8.11;72.48;95073.50;5144762;27;20221;-74
2022/10/06 01:42:05;;;;;;;3.80;2.22;;;;;;;8.06;72.57;95073.53;5144783;27;20023;-74
2022/10/06 01:44:30;;;;;;;4.00;1.90;;;;;;;8.02;72.84;95061.84;5144594;27;20212;-74
2022/10/06 01:46:56;;;;;;;5.28;2.20;;;;;;;8.04;72.99;95075.66;5144709;27;20038;-75
2022/10/06 01:49:21;;;;;;;5.43;2.92;;;;;;;8.05;73.09;95077.22;5144792;27;20019;-75
2022/10/06 01:51:47;;;;;;;4.07;2.00;;;;;;;8.02;73.24;95075.91;5144453;27;20244;-75
2022/10/06 01:54:13;;;;;;;2.83;1.60;;;;;;;7.98;73.25;95076.72;5144504;27;20026;-75
2022/10/06 01:56:38;;;;;;;2.58;1.65;;;;;;;7.98;73.18;95076.72;5144363;27;20023;-74
2022/10/06 01:59:04;;;;;;;4.30;1.50;;;;;;;7.96;72.91;95076.97;5144365;27;20255;-75
2022/10/06 02:01:29;;;;;;;4.53;1.48;;;;;;;7.93;73.06;95074.03;5144200;27;20019;-74
2022/10/06 02:03:55;;;;;;;6.15;1.65;;;;;;;7.92;73.01;95072.47;5144627;27;20081;-74
2022/10/06 02:06:20;;;;;;;2.95;1.67;;;;;;;7.89;73.09;95078.28;5143971;27;20328;-74
2022/10/06 02:08:46;;;;;;;4.03;1.42;;;;;;;7.81;73.12;95077.75;5144199;27;20031;-74
2022/10/06 02:11:12;;;;;;;4.30;1.90;;;;;;;7.83;73.19;95074.84;5143884;27;20038;-74
2022/10/06 02:13:37;;;;;;;4.03;1.85;;;;;;;7.80;73.32;95070.88;5144564;27;20274;-74
2022/10/06 02:16:05;;;;;;;2.45;1.58;;;;;;;7.75;73.21;95083.31;5143981;27;20098;-74
2022/10/06 02:18:32;;;;;;;3.33;1.90;;;;;;;7.75;73.33;95075.38;5144184;27;20023;-76
2022/10/06 02:20:58;;;;;;;4.15;1.55;;;;;;;7.74;73.49;95073.78;5144058;27;20015;-75
2022/10/06 02:23:24;;;;;;;4.07;1.95;;;;;;;7.71;73.57;95080.41;5144549;27;20019;-75
2022/10/06 02:25:57;;;;;;;4.50;2.00;;;;;;;7.71;73.50;95071.66;5143989;27;20034;-75
2022/10/06 02:28:22;;;;;;;6.13;2.95;;;;;;;7.71;73.49;95077.75;5144359;27;20064;-75
2022/10/06 02:30:48;;;;;;;8.52;4.03;;;;;;;7.72;73.54;95060.00;5143909;27;20031;-75
2022/10/06 02:33:13;;;;;;;8.50;3.33;;;;;;;7.66;73.63;95061.84;5143945;27;20019;-75
2022/10/06 02:35:41;;;;;;;7.35;3.42;;;;;;;7.71;73.56;95066.34;5144104;27;20251;-75
2022/10/06 02:38:07;;;;;;;7.65;3.60;;;;;;;7.73;73.54;95062.34;5143751;28;20094;-75
2022/10/06 02:40:32;;;;;;;9.27;3.85;;;;;;;7.72;73.30;95068.75;5143989;27;20022;-75
2022/10/06 02:42:58;;;;;;;5.38;3.20;;;;;;;7.72;73.29;95073.25;5144113;27;20202;-75
2022/10/06 02:45:23;;;;;;;5.97;3.00;;;;;;;7.67;73.68;95074.03;5144330;27;20372;-75
2022/10/06 02:47:48;;;;;;;6.43;3.38;;;;;;;7.66;73.52;95075.09;5143734;27;20190;-75
2022/10/06 02:50:14;;;;;;;5.45;2.65;;;;;;;7.63;73.60;95083.56;5147827;27;20031;-75
2022/10/06 02:52:41;;;;;;;6.32;2.70;;;;;;;7.63;73.65;95079.09;5148044;27;20060;-75
2022/10/06 02:55:08;;;;;;;4.78;2.75;;;;;;;7.62;73.36;95074.81;5148316;27;20090;-75
2022/10/06 02:57:33;;;;;;;3.22;2.17;;;;;;;7.62;73.38;95087.31;5148133;27;20019;-75
2022/10/06 02:59:59;;;;;;;6.78;2.70;;;;;;;7.64;73.09;95077.22;5147924;27;20015;-74
2022/10/06 03:02:24;;;;;;;10.02;4.07;;;;;;;7.64;73.50;95072.72;5147976;27;20027;-75
2022/10/06 03:04:50;;;;;;;7.03;4.28;;;;;;;7.68;73.84;95080.16;5147790;27;20030;-75
2022/10/06 03:07:16;;;;;;;7.30;3.85;;;;;;;7.66;73.75;95080.41;5147604;27;20018;-75
2022/10/06 03:09:41;;;;;;;3.92;1.77;;;;;;;7.66;73.14;95076.97;5147744;27;20034;-74
2022/10/06 03:12:07;;;;;;;4.30;2.50;;;;;;;7.61;72.86;95083.03;5147807;27;20022;-75
2022/10/06 03:14:32;;;;;;;10.00;3.17;;;;;;;7.60;72.86;95076.94;5147669;27;20328;-74
2022/10/06 03:16:58;;;;;;;7.68;4.03;;;;;;;7.60;73.41;95081.47;5147817;27;20043;-74
2022/10/06 03:19:23;;;;;;;11.05;4.03;;;;;;;7.61;73.53;95077.75;5147860;27;20368;-74
2022/10/06 03:21:49;;;;;;;5.57;3.10;;;;;;;7.61;73.33;95069.78;5147358;27;20015;-74
2022/10/06 03:24:15;;;;;;;15.90;3.55;;;;;;;7.61;73.42;95085.69;5147536;27;20309;-74
2022/10/06 03:26:43;;;;;;;8.48;3.90;;;;;;;7.62;73.46;95082.00;5147297;27;20023;-74
2022/10/06 03:29:09;;;;;;;4.35;2.75;;;;;;;7.58;73.22;95067.66;5147346;27;20271;-74
2022/10/06 03:31:35;;;;;;;10.18;3.90;;;;;;;7.57;73.57;95079.31;5129084;27;20362;-74
2022/10/06 03:34:00;;;;;;;5.65;3.25;;;;;;;7.52;73.39;95068.72;5147468;27;20026;-75
2022/10/06 03:36:28;;;;;;;7.72;3.83;;;;;;;7.51;73.61;95077.72;5147481;27;20026;-75
2022/10/06 03:38:54;;;;;;;5.57;2.90;;;;;;;7.47;73.70;95066.06;5147298;27;20019;-74
2022/10/06 03:41:23;;;;;;;7.88;2.90;;;;;;;7.46;73.61;95061.81;5147012;27;20102;-75
2022/10/06 03:43:50;;;;;;;2.90;2.22;;;;;;;7.45;73.70;95069.00;5147121;27;20023;-75
2022/10/06 03:46:19;;;;;;;4.88;2.95;;;;;;;7.43;73.77;95060.50;5146877;27;20023;-75
2022/10/06 03:48:45;;;;;;;8.38;2.90;;;;;;;7.41;73.84;95062.63;5147124;27;20019;-75
2022/10/06 03:51:13;;;;;;;7.15;2.85;;;;;;;7.40;74.20;95063.66;5146837;27;20124;-75
2022/10/06 03:53:43;;;;;;;7.78;3.85;;;;;;;7.38;74.43;95053.31;5146945;27;20026;-74
2022/10/06 03:56:15;;;;;;;11.73;4.13;;;;;;;7.38;74.63;95057.81;5146808;27;20312;-74
2022/10/06 03:58:43;;;;;;;7.07;3.28;;;;;;;7.40;74.57;95059.16;5146623;27;20015;-75
2022/10/06 04:01:15;;;;;;;8.45;3.95;;;;;;;7.39;74.41;95062.09;5145657;27;20094;-74
2022/10/06 04:03:41;;;;;;;7.35;3.47;;;;;;;7.40;74.44;95061.78;5146864;27;20019;-74
2022/10/06 04:06:11;;;;;;;6.38;3.50;;;;;;;7.35;74.46;95061.81;5146590;27;20281;-75
2022/10/06 04:08:37;;;;;;;7.28;4.18;;;;;;;7.32;74.29;95069.47;5146635;27;20042;-75
2022/10/06 04:11:10;;;;;;;8.65;4.07;;;;;;;7.29;74.04;95065.50;5146669;27;20298;-75
2022/10/06 04:13:37;;;;;;;9.00;3.60;;;;;;;7.23;73.98;95062.03;5146487;27;20034;-74
2022/10/06 04:16:25;;;;;;;6.85;3.75;;;;;;;7.15;74.45;95070.50;5146461;27;20041;-75
2022/10/06 04:18:54;;;;;;;9.70;3.55;;;;;;;7.08;74.89;95074.47;5146705;27;20015;-75
2022/10/06 04:21:20;;;;;;;14.38;3.80;;;;;;;7.01;75.39;95067.53;5146819;27;20011;-75
2022/10/06 04:23:45;;;;;;;8.73;4.70;;;;;;;7.00;75.67;95068.63;5146431;27;20019;-75
2022/10/06 04:26:13;;;;;;;7.93;4.35;;;;;;;7.03;75.83;95062.78;5146261;27;20091;-75
2022/10/06 04:28:40;;;;;;;8.13;4.07;;;;;;;7.03;75.67;95059.34;5146493;27;20087;-75
2022/10/06 04:31:21;;;;;;;8.25;4.32;;;;;;;7.03;75.56;95065.44;5146131;27;20026;-75
2022/10/06 04:33:50;;;;;;;8.73;3.75;;;;;;;7.06;75.50;95066.75;5146522;27;20276;-75
2022/10/06 04:36:22;;;;;;;13.20;4.32;;;;;;;7.07;75.41;95062.28;5146354;27;20015;-75
2022/10/06 04:38:49;;;;;;;11.00;3.50;;;;;;;7.06;75.18;95076.56;5146100;27;20019;-74
2022/10/06 04:41:17;;;;;;;8.23;4.97;;;;;;;7.03;75.10;95073.38;5146398;27;20012;-74
2022/10/06 04:43:47;;;;;;;14.45;4.47;;;;;;;7.01;75.40;95072.84;5146291;27;20045;-74
2022/10/06 04:46:13;;;;;;;7.63;3.83;;;;;;;7.00;75.33;95079.22;5146124;27;20034;-74
2022/10/06 04:48:38;;;;;;;12.48;5.35;;;;;;;6.96;75.69;95083.44;5146178;27;20043;-74
2022/10/06 04:51:06;;;;;;;8.60;4.63;;;;;;;6.95;76.27;95079.19;5145526;27;20320;-74
2022/10/06 04:53:32;;;;;;;13.55;4.97;;;;;;;6.97;76.24;95082.38;5145527;27;20019;-74
2022/10/06 04:55:58;;;;;;;12.38;4.88;;;;;;;6.99;76.29;95079.47;5145220;27;20019;-74
2022/10/06 04:58:24;;;;;;;11.23;5.03;;;;;;;7.00;76.20;95084.53;5145626;27;20336;-74
2022/10/06 05:00:49;;;;;;;11.05;5.20;;;;;;;7.06;75.96;95087.19;5145424;27;20015;-74
2022/10/06 05:03:14;;;;;;;13.65;5.57;;;;;;;7.10;76.05;95085.59;5145337;27;20090;-73
2022/10/06 05:05:40;;;;;;;10.85;5.35;;;;;;;7.14;76.01;95089.31;5145233;27;20325;-73
2022/10/06 05:08:05;;;;;;;14.48;6.05;;;;;;;7.18;76.07;95090.41;5145163;27;20019;-73
2022/10/06 05:10:30;;;;;;;12.57;5.97;;;;;;;7.20;76.02;95096.22;5145407;27;20231;-73
2022/10/06 05:12:56;;;;;;;17.67;6.47;;;;;;;7.22;76.04;95104.72;5145109;27;20067;-74
2022/10/06 05:15:22;;;;;;;17.00;6.43;;;;;;;7.28;76.07;95094.94;5145255;27;20027;-75
2022/10/06 05:17:47;;;;;;;13.52;5.93;;;;;;;7.33;75.96;95090.44;5144926;27;20052;-74
2022/10/06 05:20:13;;;;;;;19.83;7.03;;;;;;;7.41;75.96;95100.53;5144985;27;20019;-74
2022/10/06 05:22:38;;;;;;;16.20;6.28;;;;;;;7.50;75.60;95089.41;5144994;27;20090;-74
2022/10/06 05:25:04;;;;;;;9.00;5.20;;;;;;;7.55;75.57;95086.75;5145032;27;20029;-74
2022/10/06 05:27:29;;;;;;;10.63;6.45;;;;;;;7.58;75.45;95092.34;5144820;27;20347;-74
2022/10/06 05:29:55;;;;;;;22.33;6.30;;;;;;;7.64;75.68;95088.63;5144621;27;20038;-74
2022/10/06 05:32:20;;;;;;;17.55;6.65;;;;;;;7.70;75.67;95089.44;5144854;27;20032;-74
2022/10/06 05:34:45;;;;;;;14.30;5.85;;;;;;;7.76;75.49;95083.06;5144612;27;20019;-74
2022/10/06 05:37:11;;;;;;;12.35;6.07;;;;;;;7.85;75.10;95088.63;5144730;27;20038;-74
2022/10/06 05:39:36;;;;;;;16.55;6.35;;;;;;;7.95;75.09;95085.19;5144728;27;20015;-75
2022/10/06 05:42:02;;;;;;;14.27;6.03;;;;;;;8.06;74.61;95089.44;5144651;27;20285;-77
2022/10/06 05:44:28;;;;;;;15.00;6.65;;;;;;;8.17;74.39;95088.38;5144424;27;20090;-77
2022/10/06 05:46:53;;;;;;;16.23;6.88;;;;;;;8.28;74.26;95086.47;5144910;27;20060;-83
2022/10/06 05:49:19;;;;;;;25.45;9.10;;;;;;;8.41;73.71;95087.84;5126024;27;20317;-78
2022/10/06 05:51:44;;;;;;;37.05;11.98;;;;;;;8.49;73.66;95081.16;5125813;27;20243;-80
2022/10/06 05:54:10;;;;;;;34.75;14.40;;;;;;;8.60;73.33;95094.16;5144377;27;20042;-81
2022/10/06 05:56:36;;;;;;;39.55;14.10;;;;;;;8.73;73.19;95086.69;5144463;27;20015;-82
2022/10/06 05:59:03;;;;;;;34.83;12.75;;;;;;;8.81;72.88;95088.78;5144435;27;20313;-82
2022/10/06 06:01:36;;;;;;;26.02;10.40;;;;;;;8.93;72.25;95089.25;5144127;27;20352;-82
2022/10/06 06:04:07;;;;;;;18.42;8.90;;;;;;;9.05;72.27;95088.97;5144473;27;20019;-82
2022/10/06 06:06:38;;;;;;;23.88;8.20;;;;;;;9.15;72.06;95098.75;5144231;27;20019;-82
2022/10/06 06:09:09;;;;;;;18.63;7.13;;;;;;;9.25;71.55;95098.72;5144153;27;20336;-82
2022/10/06 06:11:36;;;;;;;30.20;7.38;;;;;;;9.32;70.99;95098.41;5144322;27;20019;-82
2022/10/06 06:14:10;;;;;;;20.55;9.32;;;;;;;9.46;71.55;95095.94;5144275;27;20068;-81
2022/10/06 06:16:38;;;;;;;20.67;6.82;;;;;;;9.44;71.70;95099.69;5144139;27;20254;-81
2022/10/06 06:19:05;;;;;;;20.10;7.63;;;;;;;9.46;71.83;95094.06;5144310;27;20352;-81
2022/10/06 06:21:32;;;;;;;21.15;7.80;;;;;;;9.46;71.26;95103.91;5144062;27;20015;-82
2022/10/06 06:23:57;;;;;;;21.98;8.32;;;;;;;9.43;71.12;95099.94;5143032;27;20023;-82
2022/10/06 06:26:25;;;;;;;21.77;8.50;;;;;;;9.39;70.94;95107.69;5142402;27;20109;-80
2022/10/06 06:28:53;;;;;;;14.40;7.38;;;;;;;9.42;71.33;95098.34;5142466;27;20046;-80
2022/10/06 06:31:25;;;;;;;23.95;8.55;;;;;;;9.39;71.01;95105.03;5142787;27;20019;-80
2022/10/06 06:33:54;;;;;;;16.10;7.45;;;;;;;9.38;71.30;95108.75;5143230;27;20022;-80
2022/10/06 06:36:25;;;;;;;12.63;7.22;;;;;;;9.41;71.54;95115.41;5143199;27;20034;-80
2022/10/06 06:38:54;;;;;;;21.67;7.13;;;;;;;9.47;70.90;95118.84;5143350;28;20309;-82
2022/10/06 06:41:28;;;;;;;16.90;7.10;;;;;;;9.37;70.35;95117.81;5143927;27;20025;-82
2022/10/06 06:43:54;;;;;;;17.95;7.75;;;;;;;9.24;70.38;95113.88;5144053;28;20090;-81
2022/10/06 06:46:25;;;;;;;19.98;7.40;;;;;;;9.31;70.56;95118.91;5143838;27;20039;-80
2022/10/06 06:48:51;;;;;;;15.80;8.30;;;;;;;9.42;70.48;95115.13;5143797;27;20027;-82
2022/10/06 06:51:21;;;;;;;14.45;7.68;;;;;;;9.49;69.94;95112.16;5143529;28;20068;-84
2022/10/06 06:53:47;;;;;;;15.48;7.57;;;;;;;9.58;69.82;95115.03;5143761;28;20084;-82
2022/10/06 06:56:12;;;;;;;30.73;9.45;;;;;;;9.55;70.10;95113.72;5143917;28;20089;-82
2022/10/06 06:58:38;;;;;;;23.83;7.07;;;;;;;9.56;69.75;95109.97;5143624;28;20027;-82
2022/10/06 07:01:12;;;;;;;16.13;6.85;;;;;;;9.65;69.42;95102.22;5143554;27;20022;-80
2022/10/06 07:03:38;;;;;;;28.95;7.75;;;;;;;9.76;68.69;95108.25;5143614;27;20307;-76
2022/10/06 07:06:11;;;;;;;21.45;7.30;;;;;;;9.88;68.28;95105.25;5143818;27;20019;-77
2022/10/06 07:08:43;;;;;;;14.50;7.38;;;;;;;9.98;68.42;95092.66;5143765;28;20076;-79
2022/10/06 07:11:17;;;;;;;23.27;8.52;;;;;;;10.11;68.43;95109.06;5143436;27;20019;-79
2022/10/06 07:13:43;;;;;;;26.60;7.57;;;;;;;10.10;68.47;95100.28;5143675;28;20106;-80
2022/10/06 07:27:22;;;;;;;18.10;7.70;;;;;;;10.44;68.08;95086.94;5143551;27;20412;-80
2022/10/06 07:29:52;;;;;;;14.50;7.50;;;;;;;10.53;68.28;95095.13;5143183;27;20078;-80
2022/10/06 07:32:20;;;;;;;20.20;7.75;;;;;;;10.63;67.99;95089.69;5143350;28;20203;-78
2022/10/06 07:34:46;;;;;;;21.45;8.55;;;;;;;10.74;66.72;95090.38;5144659;27;20313;-80
2022/10/06 07:37:11;;;;;;;15.70;7.35;;;;;;;10.88;66.26;95087.81;5147215;27;20034;-75
2022/10/06 07:39:36;;;;;;;13.13;6.65;;;;;;;11.03;65.74;95076.16;5146825;27;20022;-75
2022/10/06 07:42:06;;;;;;;23.17;6.43;;;;;;;11.18;65.22;95080.53;5147355;27;20019;-79
2022/10/06 07:44:31;;;;;;;19.65;6.88;;;;;;;11.24;64.86;95074.03;5147081;27;20091;-80
2022/10/06 07:46:57;;;;;;;15.73;6.18;;;;;;;11.38;64.11;95076.81;5147144;27;20022;-81
2022/10/06 07:49:22;;;;;;;14.90;5.53;;;;;;;11.48;64.23;95081.19;5147171;27;20365;-81
2022/10/06 07:51:47;;;;;;;17.83;6.50;;;;;;;11.51;63.37;95080.63;5147085;27;20023;-81
2022/10/06 07:54:13;;;;;;;18.15;6.50;;;;;;;11.61;62.94;95083.16;5146697;27;20094;-79
2022/10/06 07:56:38;;;;;;;10.50;6.10;;;;;;;11.71;63.26;95091.00;5146941;27;20023;-79
2022/10/06 07:59:04;;;;;;;17.02;5.53;;;;;;;11.86;62.77;95089.97;5146744;27;20019;-81
2022/10/06 08:01:29;;;;;;;16.48;6.45;;;;;;;11.98;61.90;95089.56;5146832;27;20022;-81
2022/10/06 08:03:55;;;;;;;25.42;5.75;;;;;;;12.08;61.86;95093.97;5146949;27;20019;-79
2022/10/06 08:06:23;;;;;;;15.82;5.47;;;;;;;12.17;61.31;95094.88;5146810;27;20030;-81
2022/10/06 08:08:51;;;;;;;14.95;6.50;;;;;;;12.18;60.33;95094.59;5146650;27;20019;-81
2022/10/06 08:11:16;;;;;;;12.30;5.68;;;;;;;12.22;60.67;95084.91;5146631;27;20019;-79
2022/10/06 08:13:44;;;;;;;19.40;5.95;;;;;;;12.22;60.36;95090.25;5146794;27;20038;-79
2022/10/06 08:16:16;;;;;;;15.18;5.75;;;;;;;12.32;60.58;95085.81;5146337;27;20102;-80
2022/10/06 08:18:42;;;;;;;25.92;8.48;;;;;;;12.35;61.15;95085.22;5146518;27;20027;-80
2022/10/06 08:21:14;;;;;;;21.65;7.15;;;;;;;12.44;60.88;95083.47;5146417;27;20316;-77
2022/10/06 08:23:41;;;;;;;27.48;8.43;;;;;;;12.54;60.45;95083.28;5146290;27;20023;-80
2022/10/06 08:26:11;;;;;;;20.35;6.45;;;;;;;12.55;59.85;95084.84;5146097;27;20027;-82
2022/10/06 08:28:37;;;;;;;15.27;5.97;;;;;;;12.64;59.18;95074.28;5146156;27;20228;-78
2022/10/06 08:31:05;;;;;;;22.52;6.07;;;;;;;12.73;59.67;95075.19;5145995;27;20041;-78
2022/10/06 08:33:31;;;;;;;18.10;6.22;;;;;;;12.82;59.47;95083.28;5127461;27;20015;-82
2022/10/06 08:36:03;;;;;;;16.42;6.93;;;;;;;12.84;58.68;95075.75;5145908;27;20026;-80
2022/10/06 08:38:28;;;;;;;14.80;6.65;;;;;;;12.88;59.02;95078.66;5146180;27;20019;-80
2022/10/06 08:40:53;;;;;;;28.48;6.43;;;;;;;12.99;58.25;95078.16;5146245;27;20225;-80
2022/10/06 08:43:23;;;;;;;20.23;6.50;;;;;;;13.04;58.73;95075.38;5146026;27;20080;-79
2022/10/06 08:45:58;;;;;;;17.98;6.75;;;;;;;13.10;58.46;95075.28;5127223;27;20026;-81
2022/10/06 08:48:28;;;;;;;17.27;7.10;;;;;;;13.16;58.79;95077.53;5145915;27;20019;-83
2022/10/06 08:50:59;;;;;;;14.15;6.70;;;;;;;13.32;58.44;95067.34;5145996;27;20019;-78
2022/10/06 08:53:37;;;;;;;13.02;7.05;;;;;;;13.39;58.16;95073.09;5145993;27;20106;-78
2022/10/06 08:56:16;;;;;;;12.77;6.45;;;;;;;13.50;57.86;95067.50;5145576;27;20102;-79
2022/10/06 08:58:51;;;;;;;21.45;6.75;;;;;;;13.65;57.78;95065.25;5145672;27;20031;-81
2022/10/06 09:01:22;;;;;;;20.92;7.32;;;;;;;13.79;57.39;95067.91;5145309;27;20035;-81
2022/10/06 09:03:50;;;;;;;16.52;6.63;;;;;;;13.84;56.25;95073.16;5145536;27;20270;-80
2022/10/06 09:06:39;;;;;;;14.32;6.43;;;;;;;13.91;55.72;95074.63;5145483;27;20023;-81
2022/10/06 09:09:33;;;;;;;13.10;6.07;;;;;;;14.09;56.01;95073.66;5145445;27;20022;-81
2022/10/06 09:12:27;;;;;;;18.52;6.72;;;;;;;14.23;55.55;95074.38;5126963;27;20063;-80
2022/10/06 09:15:32;;;;;;;14.85;6.90;;;;;;;14.41;54.38;95069.09;5127089;27;20098;-81
2022/10/06 09:18:09;;;;;;;14.93;6.72;;;;;;;14.46;53.34;95058.25;5145239;27;20221;-78
2022/10/06 09:20:45;;;;;;;13.88;6.20;;;;;;;14.32;53.22;95069.03;5145169;27;20019;-78
2022/10/06 09:23:46;;;;;;;15.52;8.18;;;;;;;14.40;53.29;95068.31;5126719;27;20233;-82
2022/10/06 09:26:02;;;;;;;16.63;6.65;;;;;;;14.40;53.38;95056.78;5145075;27;20027;-80
2022/10/06 09:28:28;;;;;;;15.73;6.47;;;;;;;14.47;53.75;95059.84;5144811;27;20339;-81
2022/10/06 09:30:54;;;;;;;18.75;7.40;;;;;;;14.59;53.66;95053.91;5145066;27;20029;-83
2022/10/06 09:33:23;;;;;;;14.50;6.35;;;;;;;14.63;52.79;95066.41;5144929;27;20027;-79
2022/10/06 09:36:08;;;;;;;13.95;6.25;;;;;;;14.72;52.30;95053.03;5144878;27;20027;-82
2022/10/06 09:38:54;;;;;;;13.93;6.72;;;;;;;14.78;52.35;95045.63;5144917;27;20034;-78
2022/10/06 09:41:43;;;;;;;14.10;7.68;;;;;;;14.87;52.40;95046.44;5144763;27;20018;-81
2022/10/06 09:44:28;;;;;;;18.98;5.85;;;;;;;15.01;51.68;95036.38;5144584;27;20037;-79
2022/10/06 09:46:54;;;;;;;12.50;5.78;;;;;;;15.09;50.20;95040.19;5144736;27;20250;-80
2022/10/06 09:49:24;;;;;;;12.60;5.70;;;;;;;15.11;50.12;95039.88;5144381;27;20043;-80
2022/10/06 09:52:01;;;;;;;11.27;6.13;;;;;;;15.15;50.13;95035.47;5126141;27;20030;-79
2022/10/06 09:54:27;;;;;;;10.50;5.22;;;;;;;15.23;50.47;95034.69;5126350;27;20030;-79
2022/10/06 09:56:54;;;;;;;10.07;4.82;;;;;;;15.27;49.97;95035.66;5144655;27;20050;-81
2022/10/06 09:59:23;;;;;;;12.40;4.50;;;;;;;15.53;49.33;95038.38;5143720;27;20031;-80
2022/10/06 10:01:56;;;;;;;13.30;5.10;;;;;;;15.69;48.63;95025.22;5144492;27;20022;-80
2022/10/06 10:04:36;;;;;;;18.80;6.85;;;;;;;15.77;48.15;95029.88;5144476;27;20083;-80
2022/10/06 10:07:25;;;;;;;11.15;4.30;;;;;;;15.84;48.98;95029.38;5144493;27;20019;-80
2022/10/06 10:10:17;;;;;;;17.13;4.15;;;;;;;15.99;47.34;95030.78;5144158;27;20030;-81
2022/10/06 10:12:53;;;;;;;10.93;3.77;;;;;;;16.08;45.96;95017.31;5144564;27;20022;-79
2022/10/06 10:15:19;;;;;;;8.90;3.50;;;;;;;16.24;46.50;95029.97;5144410;27;20082;-78
2022/10/06 10:18:02;;;;;;;12.00;4.40;;;;;;;16.32;45.12;95030.25;5144385;27;20038;-77
2022/10/06 10:20:35;;;;;;;8.95;3.67;;;;;;;16.44;43.20;95031.19;5144113;27;20071;-77
2022/10/06 10:23:18;;;;;;;14.85;3.80;;;;;;;16.53;41.34;95025.75;5144181;27;20042;-77
2022/10/06 10:25:57;;;;;;;11.35;4.97;;;;;;;16.52;43.70;95018.00;5144110;27;20118;-78
2022/10/06 10:28:49;;;;;;;7.88;4.43;;;;;;;16.55;45.20;95020.06;5144070;27;20221;-78
2022/10/06 10:31:47;;;;;;;8.73;3.75;;;;;;;16.67;41.88;95019.38;5143819;27;20261;-78
2022/10/06 10:34:17;;;;;;;19.58;3.92;;;;;;;16.69;42.87;95014.44;5144118;27;20031;-78
2022/10/06 10:36:54;;;;;;;12.93;4.47;;;;;;;16.67;41.92;95003.22;5143835;27;20076;-77
2022/10/06 10:39:47;;;;;;;7.63;3.72;;;;;;;16.69;41.66;94998.28;5143964;27;20090;-78
2022/10/06 10:42:17;;;;;;;;;;;;;;;16.78;41.64;94997.16;5107868;28;20031;-78
2022/10/06 10:44:54;;;;;;;8.80;3.10;;;;;;;16.94;41.97;95002.03;5143715;28;19907;-79
2022/10/06 10:47:44;;;;;;;10.70;3.65;;;;;;;17.05;39.40;94998.59;5143505;27;20015;-78
2022/10/06 10:50:18;;;;;;;9.77;4.60;;;;;;;17.09;39.14;94992.59;5143064;28;20272;-79
2022/10/06 10:52:48;;;;;;;10.10;4.03;;;;;;;17.11;38.91;94995.75;5143628;28;20019;-78
2022/10/06 10:55:30;;;;;;;13.35;4.28;;;;;;;17.22;40.71;94986.94;5143716;27;20080;-79
2022/10/06 10:58:10;;;;;;;8.43;3.95;;;;;;;17.35;38.61;94985.13;5143667;27;20030;-76
2022/10/06 11:00:40;;;;;;;8.65;4.40;;;;;;;17.41;37.48;94985.72;5143280;28;20022;-79
2022/10/06 11:03:09;;;;;;;14.43;5.10;;;;;;;17.32;38.07;94988.47;5143647;28;20030;-76
2022/10/06 11:05:41;;;;;;;13.00;4.20;;;;;;;17.47;39.95;94980.91;5143647;28;20236;-79
2022/10/06 11:08:15;;;;;;;14.32;3.92;;;;;;;17.69;37.95;94982.47;5143263;27;20019;-79
2022/10/06 11:10:49;;;;;;;13.27;4.85;;;;;;;17.83;37.11;94981.09;5146256;27;20030;-79
2022/10/06 11:13:51;;;;;;;7.38;4.05;;;;;;;17.95;35.99;94991.16;5147804;27;20064;-78
2022/10/06 11:16:48;;;;;;;14.27;4.47;;;;;;;17.99;36.78;94970.50;5147669;27;20268;-79
2022/10/06 11:19:40;;;;;;;9.90;3.70;;;;;;;18.04;35.50;94969.47;5147673;27;20019;-78
2022/10/06 11:22:28;;;;;;;12.20;3.38;;;;;;;18.12;34.38;94968.59;5147447;27;20023;-78
2022/10/06 11:25:36;;;;;;;7.93;3.72;;;;;;;18.27;34.49;94966.38;5147736;27;20124;-78
2022/10/06 11:28:11;;;;;;;12.35;3.75;;;;;;;18.45;33.54;94962.34;5137189;27;20034;-77
2022/10/06 11:31:06;;;;;;;10.10;3.80;;;;;;;18.64;33.43;94951.81;5147212;27;20043;-80
2022/10/06 11:34:02;;;;;;;7.55;3.28;;;;;;;18.93;33.29;94935.72;5147279;27;20240;-80
2022/10/06 11:36:53;;;;;;;7.72;3.00;;;;;;;19.17;31.62;94940.28;5143142;27;20309;-80
2022/10/06 11:39:30;;;;;;;13.02;2.83;;;;;;;19.37;33.42;94944.75;5142595;27;20039;-77
2022/10/06 11:42:15;;;;;;;5.35;2.42;;;;;;;19.51;29.30;94938.19;5146455;27;20034;-77
2022/10/06 11:44:46;;;;;;;7.47;2.38;;;;;;;19.62;29.90;94936.53;5146538;27;20030;-77
2022/10/06 11:47:19;;;;;;;8.13;2.70;;;;;;;19.74;29.18;94933.03;5145838;27;20039;-77
2022/10/06 11:49:50;;;;;;;8.80;2.47;;;;;;;19.79;29.12;94925.47;5147085;27;20019;-77
2022/10/06 11:52:16;;;;;;;7.82;2.40;;;;;;;19.89;28.75;94929.59;5146963;27;20301;-77
2022/10/06 11:54:48;;;;;;;7.05;2.58;;;;;;;19.94;28.25;94912.31;5146986;27;20034;-77
2022/10/06 11:57:22;;;;;;;6.68;2.20;;;;;;;20.05;27.88;94916.09;5147290;27;20274;-77
2022/10/06 11:59:54;;;;;;;5.00;1.80;;;;;;;20.23;28.34;94920.03;5146869;27;20255;-77